Date,TemperatureHighF,TemperatureAvgF,TemperatureLowF,DewpointHighF,DewpointAvgF,DewpointLowF,HumidityHigh,HumidityAvg,HumidityLow,PressureMaxIn,PressureMinIn,WindSpeedMaxMPH,WindSpeedAvgMPH,GustSpeedMaxMPH,PrecipitationSumIn
2013-10-1,60,57,53,32,30,28,44,37,30,0.00,40.00,7,6,22,0.01
2013-10-2,65,53,44,45,37,32,82,56,33,0.00,40.00,6,4,15,0.06
2013-10-3,62,52,45,47,45,43,95,77,50,0.00,40.00,6,3,13,0.01
2013-10-4,56,50,45,45,43,39,94,78,60,0.00,40.00,9,5,17,0.01
2013-10-5,48,43,41,43,40,36,96,89,68,0.00,40.00,9,8,21,0.37
2013-10-6,47,42,40,44,41,38,96,93,86,0.00,40.00,7,4,14,0.40
2013-10-7,59,46,37,45,38,34,95,76,45,0.00,40.00,6,4,15,0.01
2013-10-8,74,60,42,43,40,34,80,51,30,0.00,40.00,12,8,25,0.00
2013-10-9,73,62,54,50,46,42,79,57,42,0.00,40.00,7,5,16,0.00
2013-10-10,71,62,54,49,46,41,80,58,36,0.00,40.00,8,6,17,0.00
2013-10-11,70,60,54,52,47,41,80,64,45,0.00,40.00,13,8,25,0.00
2013-10-12,61,51,44,56,44,-100,93,80,68,0.00,40.00,11,8,23,0.09
2013-10-13,53,44,35,42,34,28,95,72,40,0.00,40.00,7,4,17,0.11
2013-10-14,49,44,36,41,36,29,95,74,55,0.00,40.00,5,3,10,0.36
2013-10-15,42,41,40,41,39,38,95,94,91,0.00,40.00,8,6,19,0.93
2013-10-16,53,43,34,37,34,29,92,71,42,0.00,40.00,5,3,10,0.01
2013-10-17,47,42,38,42,37,32,94,84,71,0.00,40.00,5,3,12,0.14
2013-10-18,47,38,30,37,31,27,94,80,46,0.00,40.00,5,3,16,0.04
2013-10-19,40,35,32,36,29,-100,94,83,69,0.00,40.00,4,2,11,0.03
2013-10-20,37,32,28,34,30,26,95,93,88,0.00,40.00,5,2,14,0.08
2013-10-21,33,29,25,31,27,22,94,90,82,0.00,40.00,7,5,15,0.15
2013-10-22,36,31,28,29,26,24,92,81,63,0.00,40.00,5,3,11,0.09
2013-10-23,33,30,28,28,26,25,93,87,73,0.00,40.00,6,4,12,0.17
2013-10-24,38,32,28,32,24,-100,98,84,66,0.00,40.00,6,3,12,0.04
2013-10-25,43,34,26,38,30,25,97,87,63,0.00,40.00,10,5,20,0.22
2013-10-26,39,34,29,35,28,-100,97,83,60,0.00,40.00,7,5,17,0.15
2013-10-27,40,33,26,30,26,15,85,74,63,0.00,40.00,6,5,19,0.01
2013-10-28,35,27,20,18,14,-100,81,62,44,0.00,40.00,5,3,14,0.00
2013-10-29,38,29,20,22,19,16,89,68,45,0.00,40.00,6,3,12,0.00
2013-10-30,42,34,26,38,30,22,99,88,74,0.00,40.00,6,3,11,0.01
2013-10-31,40,39,38,40,39,38,100,100,99,0.00,40.00,4,2,10,0.08